createdAt,value
2018-12-09T00:00:19.659Z,60.00
2018-12-09T00:01:19.640Z,60.00
2018-12-09T00:03:13.596Z,60.00
2018-12-09T00:04:12.554Z,64.00
2018-12-09T00:06:05.453Z,64.00
2018-12-09T00:07:05.457Z,68.00
2018-12-09T00:08:58.619Z,88.00
2018-12-09T00:09:58.373Z,112.00
2018-12-09T00:11:51.265Z,112.00
2018-12-09T00:12:51.269Z,124.00
2018-12-09T00:14:44.257Z,116.00
2018-12-09T00:15:44.176Z,124.00
2018-12-09T00:17:37.082Z,124.00
2018-12-09T00:18:37.084Z,120.00
2018-12-09T00:20:30.172Z,116.00
2018-12-09T00:21:29.997Z,112.00
2018-12-09T00:23:22.908Z,92.00
2018-12-09T00:24:22.908Z,96.00
2018-12-09T00:26:15.953Z,96.00
2018-12-09T00:27:15.815Z,92.00
2018-12-09T00:29:08.720Z,92.00
2018-12-09T00:30:08.713Z,92.00
2018-12-09T00:32:01.705Z,100.00
2018-12-09T00:33:01.625Z,108.00
2018-12-09T00:34:54.524Z,116.00
2018-12-09T00:35:54.538Z,120.00
2018-12-09T00:37:47.688Z,132.00
2018-12-09T00:38:47.448Z,140.00
2018-12-09T00:40:40.341Z,136.00
2018-12-09T00:41:40.344Z,144.00
2018-12-09T00:43:34.309Z,156.00
2018-12-09T00:44:33.251Z,156.00
2018-12-09T00:46:26.156Z,180.00
2018-12-09T00:47:26.159Z,188.00
2018-12-09T00:49:19.231Z,176.00
2018-12-09T00:50:19.072Z,168.00
2018-12-09T00:52:11.977Z,172.00
2018-12-09T00:53:11.976Z,176.00
2018-12-09T00:55:05.047Z,180.00
2018-12-09T00:56:04.883Z,168.00
2018-12-09T00:57:57.784Z,176.00
2018-12-09T00:58:57.790Z,164.00
2018-12-09T01:01:29.942Z,172.00
2018-12-09T01:01:50.695Z,152.00
2018-12-09T01:03:43.601Z,136.00
2018-12-09T01:04:43.607Z,152.00
2018-12-09T01:06:36.760Z,144.00
2018-12-09T01:07:36.515Z,164.00
2018-12-09T01:09:29.420Z,176.00
2018-12-09T01:10:29.426Z,172.00
2018-12-09T01:12:22.583Z,192.00
2018-12-09T01:13:22.326Z,212.00
2018-12-09T01:15:15.239Z,252.00
2018-12-09T01:16:15.238Z,264.00
2018-12-09T01:18:08.386Z,228.00
2018-12-09T01:19:08.148Z,204.00
2018-12-09T01:21:01.040Z,200.00
2018-12-09T01:22:01.045Z,200.00
2018-12-09T01:23:54.308Z,208.00
2018-12-09T01:24:53.962Z,240.00
2018-12-09T01:26:46.880Z,228.00
2018-12-09T01:27:46.879Z,216.00
2018-12-09T01:29:40.047Z,204.00
2018-12-09T01:30:39.781Z,228.00
2018-12-09T01:32:32.687Z,236.00
2018-12-09T01:33:32.692Z,272.00
2018-12-09T01:35:25.761Z,308.00
2018-12-09T01:36:25.604Z,276.00
2018-12-09T01:38:18.498Z,256.00
2018-12-09T01:39:18.504Z,268.00
2018-12-09T01:41:11.598Z,248.00
2018-12-09T01:42:11.415Z,212.00
2018-12-09T01:44:04.319Z,244.00
2018-12-09T01:45:04.325Z,292.00
2018-12-09T01:46:57.393Z,368.00
2018-12-09T01:47:57.234Z,380.00
2018-12-09T01:49:50.129Z,364.00
2018-12-09T01:50:50.140Z,360.00
2018-12-09T01:52:43.296Z,344.00
2018-12-09T01:53:43.042Z,328.00
2018-12-09T01:55:35.940Z,304.00
2018-12-09T01:56:35.952Z,296.00
2018-12-09T01:58:29.111Z,320.00
2018-12-09T01:59:28.867Z,328.00
2018-12-09T02:01:21.767Z,340.00
2018-12-09T02:02:21.763Z,344.00
2018-12-09T02:04:14.836Z,368.00
2018-12-09T02:05:14.675Z,384.00
2018-12-09T02:07:07.584Z,356.00
2018-12-09T02:08:07.585Z,364.00
2018-12-09T02:10:00.663Z,368.00
2018-12-09T02:11:00.497Z,340.00
2018-12-09T02:12:53.399Z,328.00
2018-12-09T02:13:53.401Z,304.00
2018-12-09T02:15:46.562Z,280.00
2018-12-09T02:16:46.413Z,276.00
2018-12-09T02:18:39.224Z,332.00
2018-12-09T02:19:39.228Z,344.00
2018-12-09T02:21:32.206Z,332.00
2018-12-09T02:22:32.136Z,328.00
2018-12-09T02:24:25.035Z,328.00
2018-12-09T02:25:25.044Z,300.00
2018-12-09T02:28:49.729Z,348.00
2018-12-09T02:29:49.544Z,336.00
2018-12-09T02:31:42.456Z,312.00
2018-12-09T02:32:42.467Z,332.00
2018-12-09T02:34:35.618Z,348.00
2018-12-09T02:35:35.367Z,396.00
2018-12-09T02:37:28.830Z,344.00
2018-12-09T02:38:28.273Z,328.00
2018-12-09T02:40:21.259Z,324.00
2018-12-09T02:41:21.194Z,320.00
2018-12-09T02:43:14.085Z,304.00
2018-12-09T02:44:14.100Z,316.00
2018-12-09T02:46:07.258Z,456.00
2018-12-09T02:47:06.997Z,464.00
2018-12-09T02:48:59.893Z,532.00
2018-12-09T02:49:59.929Z,544.00
2018-12-09T02:51:52.883Z,440.00
2018-12-09T02:52:52.807Z,512.00
2018-12-09T02:54:45.718Z,560.00
2018-12-09T02:55:45.719Z,560.00
2018-12-09T02:57:38.725Z,464.00
2018-12-09T02:58:38.644Z,440.00
2018-12-09T03:00:31.547Z,424.00
2018-12-09T03:01:31.565Z,432.00
2018-12-09T03:03:24.718Z,492.00
2018-12-09T03:04:24.460Z,480.00
2018-12-09T03:06:17.366Z,452.00
2018-12-09T03:07:17.364Z,432.00
2018-12-09T03:09:10.536Z,464.00
2018-12-09T03:10:10.278Z,468.00
2018-12-09T03:12:03.176Z,468.00
2018-12-09T03:13:03.185Z,436.00
2018-12-09T03:14:57.145Z,448.00
2018-12-09T03:15:56.092Z,416.00
2018-12-09T03:17:48.992Z,428.00
2018-12-09T03:18:49.002Z,368.00
2018-12-09T03:20:42.177Z,396.00
2018-12-09T03:21:41.920Z,560.00
2018-12-09T03:23:34.816Z,612.00
2018-12-09T03:24:34.825Z,616.00
2018-12-09T03:26:28.007Z,556.00
2018-12-09T03:27:27.732Z,424.00
2018-12-09T03:29:20.635Z,400.00
2018-12-09T03:30:20.639Z,420.00
2018-12-09T03:32:13.809Z,412.00
2018-12-09T03:33:13.546Z,452.00
2018-12-09T03:35:06.474Z,364.00
2018-12-09T03:36:06.455Z,428.00
2018-12-09T03:41:02.555Z,468.00
2018-12-09T03:42:02.564Z,448.00
2018-12-09T03:43:55.471Z,512.00
2018-12-09T03:44:55.491Z,528.00
2018-12-09T03:46:48.645Z,608.00
2018-12-09T03:47:48.384Z,560.00
2018-12-09T03:49:41.284Z,488.00
2018-12-09T03:50:41.292Z,456.00
2018-12-09T03:52:34.452Z,436.00
2018-12-09T03:53:34.197Z,424.00
2018-12-09T03:55:27.099Z,336.00
2018-12-09T03:56:27.105Z,388.00
2018-12-09T03:58:20.185Z,404.00
2018-12-09T03:59:20.013Z,436.00
2018-12-09T04:01:12.926Z,440.00
2018-12-09T04:02:12.929Z,448.00
2018-12-09T04:04:45.164Z,396.00
2018-12-09T04:05:05.836Z,388.00
2018-12-09T04:06:59.396Z,448.00
2018-12-09T04:07:58.753Z,412.00
2018-12-09T04:09:51.929Z,408.00
2018-12-09T04:10:51.658Z,376.00
2018-12-09T04:12:44.576Z,456.00
2018-12-09T04:13:44.581Z,452.00
2018-12-09T04:15:37.671Z,444.00
2018-12-09T04:16:37.497Z,524.00
2018-12-09T04:18:30.398Z,484.00
2018-12-09T04:19:30.409Z,480.00
2018-12-09T04:21:23.571Z,464.00
2018-12-09T04:22:23.310Z,504.00
2018-12-09T04:24:16.773Z,560.00
2018-12-09T04:25:16.223Z,680.00
2018-12-09T04:27:09.394Z,692.00
2018-12-09T04:28:09.126Z,576.00
2018-12-09T04:30:02.107Z,604.00
2018-12-09T04:31:02.038Z,568.00
2018-12-09T04:32:55.104Z,496.00
2018-12-09T04:33:54.943Z,588.00
2018-12-09T04:35:47.837Z,676.00
2018-12-09T04:36:47.841Z,616.00
2018-12-09T04:39:09.575Z,544.00
2018-12-09T04:39:40.755Z,516.00
2018-12-09T04:41:33.683Z,556.00
2018-12-09T04:42:33.667Z,576.00
2018-12-09T04:44:26.650Z,620.00
2018-12-09T04:45:26.574Z,628.00
2018-12-09T04:47:19.488Z,676.00
2018-12-09T04:48:19.496Z,644.00
2018-12-09T04:50:12.651Z,668.00
2018-12-09T04:51:12.404Z,620.00
2018-12-09T04:53:05.299Z,700.00
2018-12-09T04:54:05.308Z,676.00
2018-12-09T04:55:58.365Z,596.00
2018-12-09T04:56:58.213Z,628.00
2018-12-09T04:58:51.134Z,684.00
2018-12-09T04:59:51.121Z,648.00
2018-12-09T05:01:44.680Z,580.00
2018-12-09T05:02:44.035Z,608.00
2018-12-09T05:04:37.513Z,452.00
2018-12-09T05:05:36.945Z,444.00
2018-12-09T05:07:30.120Z,528.00
2018-12-09T05:08:29.861Z,560.00
2018-12-09T05:10:22.885Z,500.00
2018-12-09T05:11:22.812Z,520.00
2018-12-09T05:13:16.766Z,536.00
2018-12-09T05:14:15.723Z,516.00
2018-12-09T05:16:08.701Z,520.00
2018-12-09T05:17:08.700Z,424.00
2018-12-09T05:19:01.754Z,412.00
2018-12-09T05:20:01.609Z,380.00
2018-12-09T05:21:54.515Z,416.00
2018-12-09T05:22:54.517Z,420.00
2018-12-09T05:24:47.691Z,432.00
2018-12-09T05:25:47.427Z,472.00
2018-12-09T05:27:40.336Z,376.00
2018-12-09T05:28:40.343Z,364.00
2018-12-09T05:30:34.300Z,348.00
2018-12-09T05:31:33.252Z,384.00
2018-12-09T05:33:26.154Z,348.00
2018-12-09T05:34:26.158Z,404.00
2018-12-09T05:36:19.902Z,476.00
2018-12-09T05:37:19.064Z,500.00
2018-12-09T05:39:11.969Z,492.00
2018-12-09T05:40:12.132Z,424.00
2018-12-09T05:42:05.038Z,388.00
2018-12-09T05:43:04.887Z,404.00
2018-12-09T05:44:57.795Z,444.00
2018-12-09T05:45:57.802Z,452.00
2018-12-09T05:47:50.852Z,396.00
2018-12-09T05:48:50.708Z,336.00
2018-12-09T05:50:44.156Z,336.00
2018-12-09T05:51:43.618Z,344.00
2018-12-09T05:53:36.598Z,472.00
2018-12-09T05:54:36.512Z,524.00
2018-12-09T05:56:29.422Z,548.00
2018-12-09T05:57:29.435Z,508.00
2018-12-09T05:59:22.406Z,544.00
2018-12-09T06:00:22.337Z,504.00
2018-12-09T06:02:15.250Z,436.00
2018-12-09T06:03:15.253Z,380.00
2018-12-09T06:06:40.330Z,296.00
2018-12-09T06:07:39.766Z,288.00
2018-12-09T06:09:33.232Z,260.00
2018-12-09T06:10:32.674Z,272.00
2018-12-09T06:12:26.625Z,312.00
2018-12-09T06:13:25.578Z,296.00
2018-12-09T06:15:18.486Z,308.00
2018-12-09T06:16:18.491Z,360.00
2018-12-09T06:18:11.658Z,416.00
2018-12-09T06:19:11.461Z,412.00
2018-12-09T06:21:04.306Z,420.00
2018-12-09T06:22:04.317Z,436.00
2018-12-09T06:25:29.867Z,360.00
2018-12-09T06:26:28.956Z,332.00
2018-12-09T06:28:22.336Z,296.00
2018-12-09T06:29:21.795Z,268.00
2018-12-09T06:31:14.853Z,236.00
2018-12-09T06:32:14.701Z,264.00
2018-12-09T06:34:07.604Z,424.00
2018-12-09T06:35:07.614Z,424.00
2018-12-09T06:37:00.775Z,384.00
2018-12-09T06:38:00.521Z,384.00
2018-12-09T06:39:53.419Z,360.00
2018-12-09T06:40:53.421Z,340.00
2018-12-09T06:42:46.602Z,380.00
2018-12-09T06:43:46.336Z,464.00
2018-12-09T06:45:39.233Z,588.00
2018-12-09T06:46:39.239Z,576.00
2018-12-09T06:48:32.225Z,532.00
2018-12-09T06:49:32.158Z,428.00
2018-12-09T06:51:25.063Z,392.00
2018-12-09T06:52:25.070Z,372.00
2018-12-09T06:54:18.240Z,356.00
2018-12-09T06:55:17.985Z,348.00
2018-12-09T06:57:12.422Z,296.00
2018-12-09T06:58:10.883Z,272.00
2018-12-09T06:59:10.911Z,292.00
2018-12-09T07:00:10.908Z,320.00
2018-12-09T07:01:10.925Z,308.00
2018-12-09T07:02:10.933Z,300.00
2018-12-09T07:03:10.942Z,272.00
2018-12-09T07:04:10.958Z,260.00
2018-12-09T07:05:10.971Z,268.00
2018-12-09T07:06:10.990Z,276.00
2018-12-09T07:07:10.992Z,268.00
2018-12-09T07:08:11.011Z,256.00
2018-12-09T07:09:11.024Z,240.00
2018-12-09T07:10:11.030Z,240.00
2018-12-09T07:11:11.041Z,244.00
2018-12-09T07:12:11.059Z,272.00
2018-12-09T07:13:11.065Z,288.00
2018-12-09T07:14:11.083Z,276.00
2018-12-09T07:15:11.086Z,276.00
2018-12-09T07:16:11.107Z,296.00
2018-12-09T07:17:11.110Z,300.00
2018-12-09T07:18:11.124Z,316.00
2018-12-09T07:19:11.138Z,336.00
2018-12-09T07:20:11.149Z,348.00
2018-12-09T07:21:11.170Z,360.00
2018-12-09T07:22:11.171Z,368.00
2018-12-09T07:23:11.187Z,360.00
2018-12-09T07:24:11.197Z,380.00
2018-12-09T07:25:11.225Z,384.00
2018-12-09T07:26:11.226Z,412.00
2018-12-09T07:27:11.231Z,408.00
2018-12-09T07:28:11.252Z,408.00
2018-12-09T07:29:11.259Z,432.00
2018-12-09T07:30:11.267Z,416.00
2018-12-09T07:31:11.280Z,452.00
2018-12-09T07:32:11.302Z,444.00
2018-12-09T07:33:11.303Z,444.00
2018-12-09T07:34:11.329Z,428.00
2018-12-09T07:35:11.334Z,412.00
2018-12-09T07:36:11.346Z,396.00
2018-12-09T07:37:11.352Z,420.00
2018-12-09T07:38:11.364Z,336.00
2018-12-09T07:39:11.385Z,372.00
2018-12-09T07:40:11.390Z,288.00
2018-12-09T07:41:11.402Z,304.00
2018-12-09T07:42:11.416Z,316.00
2018-12-09T07:43:11.428Z,312.00
2018-12-09T07:44:11.443Z,324.00
2018-12-09T07:45:11.456Z,308.00
2018-12-09T07:46:11.464Z,272.00
2018-12-09T07:47:11.474Z,272.00
2018-12-09T07:48:11.490Z,292.00
2018-12-09T07:49:11.507Z,284.00
2018-12-09T07:50:11.516Z,340.00
2018-12-09T07:51:11.523Z,368.00
2018-12-09T07:52:11.535Z,364.00
2018-12-09T07:53:11.551Z,352.00
2018-12-09T07:54:11.558Z,360.00
2018-12-09T07:55:11.574Z,324.00
2018-12-09T07:56:11.589Z,348.00
2018-12-09T07:57:11.599Z,328.00
2018-12-09T07:58:11.610Z,292.00
2018-12-09T07:59:11.622Z,248.00
2018-12-09T08:00:11.632Z,208.00
2018-12-09T08:01:11.758Z,196.00
2018-12-09T08:02:11.656Z,204.00
2018-12-09T08:03:11.666Z,196.00
2018-12-09T08:04:11.682Z,204.00
2018-12-09T08:05:11.691Z,212.00
2018-12-09T08:06:11.712Z,204.00
2018-12-09T08:07:11.728Z,188.00
2018-12-09T08:08:11.731Z,168.00
2018-12-09T08:09:11.747Z,160.00
2018-12-09T08:10:11.754Z,172.00
2018-12-09T08:11:11.783Z,160.00
2018-12-09T08:12:11.779Z,156.00
2018-12-09T08:13:11.786Z,140.00
2018-12-09T08:14:11.805Z,156.00
2018-12-09T08:15:11.811Z,156.00
2018-12-09T08:16:11.836Z,164.00
2018-12-09T08:17:11.835Z,168.00
2018-12-09T08:18:11.850Z,168.00
2018-12-09T08:19:11.861Z,180.00
2018-12-09T08:20:11.872Z,184.00
2018-12-09T08:21:11.886Z,172.00
2018-12-09T08:22:11.898Z,164.00
2018-12-09T08:23:11.909Z,164.00
2018-12-09T08:24:11.923Z,144.00
2018-12-09T08:25:11.931Z,152.00
2018-12-09T08:26:11.952Z,164.00
2018-12-09T08:27:11.958Z,176.00
2018-12-09T08:28:11.974Z,200.00
2018-12-09T08:29:11.991Z,204.00
2018-12-09T08:30:11.993Z,224.00
2018-12-09T08:31:12.015Z,216.00
2018-12-09T08:32:12.020Z,224.00
2018-12-09T08:33:12.088Z,212.00
2018-12-09T08:34:12.050Z,236.00
2018-12-09T08:35:12.057Z,224.00
2018-12-09T08:36:12.067Z,224.00
2018-12-09T08:37:12.080Z,212.00
2018-12-09T08:38:12.091Z,200.00
2018-12-09T08:39:12.110Z,200.00
2018-12-09T08:40:12.114Z,184.00
2018-12-09T08:41:12.124Z,188.00
2018-12-09T08:42:12.147Z,224.00
2018-12-09T08:43:12.169Z,212.00
2018-12-09T08:44:12.165Z,220.00
2018-12-09T08:45:12.175Z,248.00
2018-12-09T08:46:12.190Z,276.00
2018-12-09T08:47:12.203Z,272.00
2018-12-09T08:48:12.215Z,256.00
2018-12-09T08:49:12.226Z,248.00
2018-12-09T08:50:12.306Z,260.00
2018-12-09T08:51:12.258Z,280.00
2018-12-09T08:52:12.259Z,308.00
2018-12-09T08:53:12.285Z,320.00
2018-12-09T08:54:12.296Z,308.00
2018-12-09T08:55:12.295Z,288.00
2018-12-09T08:56:12.408Z,256.00
2018-12-09T08:57:12.321Z,240.00
2018-12-09T08:58:12.334Z,240.00
2018-12-09T08:59:12.352Z,232.00
2018-12-09T09:00:12.366Z,220.00
2018-12-09T09:01:12.376Z,208.00
2018-12-09T09:02:12.387Z,196.00
2018-12-09T09:03:12.394Z,196.00
2018-12-09T09:04:12.405Z,196.00
2018-12-09T09:05:12.419Z,200.00
2018-12-09T09:06:12.436Z,184.00
2018-12-09T09:07:12.444Z,152.00
2018-12-09T09:08:12.452Z,144.00
2018-12-09T09:09:12.498Z,140.00
2018-12-09T09:10:12.480Z,144.00
2018-12-09T09:11:12.501Z,144.00
2018-12-09T09:12:12.505Z,144.00
2018-12-09T09:13:12.517Z,152.00
2018-12-09T09:14:12.539Z,144.00
2018-12-09T09:15:12.540Z,164.00
2018-12-09T09:16:12.552Z,160.00
2018-12-09T09:17:12.561Z,156.00
2018-12-09T09:18:12.584Z,144.00
2018-12-09T09:19:12.593Z,136.00
2018-12-09T09:20:12.620Z,140.00
2018-12-09T09:21:12.618Z,136.00
2018-12-09T09:22:12.623Z,132.00
2018-12-09T09:23:12.641Z,128.00
2018-12-09T09:24:12.657Z,128.00
2018-12-09T09:25:12.664Z,124.00
2018-12-09T09:26:12.674Z,120.00
2018-12-09T09:27:12.687Z,108.00
2018-12-09T09:28:12.699Z,96.00
2018-12-09T09:29:12.711Z,96.00
2018-12-09T09:30:12.720Z,100.00
2018-12-09T09:31:12.741Z,104.00
2018-12-09T09:32:12.744Z,108.00
2018-12-09T09:33:12.759Z,116.00
2018-12-09T09:34:12.768Z,116.00
2018-12-09T09:35:12.786Z,104.00
2018-12-09T09:36:12.790Z,100.00
2018-12-09T09:37:12.801Z,88.00
2018-12-09T09:38:12.825Z,76.00
2018-12-09T09:39:12.826Z,68.00
2018-12-09T09:40:12.842Z,60.00
2018-12-09T09:41:12.859Z,52.00
2018-12-09T09:42:12.866Z,48.00
2018-12-09T09:43:12.877Z,48.00
2018-12-09T09:44:12.887Z,48.00
2018-12-09T09:45:12.898Z,52.00
2018-12-09T09:46:12.911Z,56.00
2018-12-09T09:47:12.929Z,56.00
2018-12-09T09:48:12.939Z,60.00
2018-12-09T09:49:13.049Z,56.00
2018-12-09T09:50:12.967Z,56.00
2018-12-09T09:51:12.977Z,52.00
2018-12-09T09:52:13.002Z,52.00
2018-12-09T09:53:13.006Z,48.00
2018-12-09T09:54:13.018Z,52.00
2018-12-09T09:55:13.021Z,52.00
2018-12-09T09:56:13.032Z,52.00
2018-12-09T09:57:13.044Z,48.00
2018-12-09T09:58:13.064Z,44.00
2018-12-09T09:59:13.078Z,36.00
2018-12-09T10:00:13.083Z,32.00
2018-12-09T10:01:13.093Z,28.00
2018-12-09T10:02:13.106Z,24.00
2018-12-09T10:03:13.117Z,20.00
2018-12-09T10:04:13.129Z,20.00
2018-12-09T10:05:13.138Z,24.00
2018-12-09T10:06:13.153Z,20.00
2018-12-09T10:07:13.172Z,20.00
2018-12-09T10:08:13.184Z,20.00
2018-12-09T10:09:13.192Z,20.00
2018-12-09T10:10:13.199Z,16.00
2018-12-09T10:11:13.216Z,16.00
2018-12-09T10:12:13.235Z,16.00
2018-12-09T10:13:13.246Z,12.00
2018-12-09T10:14:13.251Z,12.00
2018-12-09T10:15:13.272Z,12.00
2018-12-09T10:16:13.286Z,8.00
2018-12-09T10:17:13.284Z,8.00
2018-12-09T10:18:13.296Z,8.00
2018-12-09T10:19:13.309Z,8.00
2018-12-09T10:20:13.329Z,4.00
2018-12-09T10:21:13.335Z,0.00
2018-12-09T10:22:13.347Z,4.00
2018-12-09T10:23:13.364Z,4.00
2018-12-09T10:24:13.375Z,0.00
2018-12-09T10:25:13.385Z,4.00
2018-12-09T10:26:13.403Z,4.00
2018-12-09T10:27:13.408Z,4.00
2018-12-09T10:28:13.420Z,0.00
2018-12-09T10:29:13.433Z,0.00
2018-12-09T10:30:13.445Z,4.00
2018-12-09T10:31:13.458Z,0.00
2018-12-09T10:32:13.471Z,0.00
2018-12-09T10:33:13.489Z,0.00
2018-12-09T10:34:13.493Z,0.00
2018-12-09T10:35:13.510Z,0.00
2018-12-09T10:36:13.517Z,4.00
2018-12-09T10:37:13.522Z,0.00
2018-12-09T10:38:13.539Z,0.00
2018-12-09T10:39:13.549Z,4.00
2018-12-09T10:40:13.559Z,0.00
2018-12-09T10:41:13.584Z,4.00
2018-12-09T10:42:13.584Z,0.00
2018-12-09T10:43:13.596Z,4.00
2018-12-09T10:44:13.617Z,0.00
2018-12-09T10:45:13.624Z,4.00
2018-12-09T10:46:13.642Z,0.00
2018-12-09T10:47:13.651Z,4.00
2018-12-09T10:48:13.657Z,0.00
2018-12-09T10:49:13.675Z,4.00
2018-12-09T10:50:13.679Z,0.00
2018-12-09T10:51:13.694Z,0.00
2018-12-09T10:52:13.705Z,0.00
2018-12-09T10:53:13.720Z,4.00
2018-12-09T10:54:13.735Z,4.00
2018-12-09T10:55:13.742Z,0.00
2018-12-09T10:56:13.752Z,0.00
2018-12-09T10:57:13.764Z,0.00
2018-12-09T10:58:13.784Z,0.00
2018-12-09T10:59:13.790Z,4.00
2018-12-09T11:00:13.808Z,0.00
2018-12-09T11:01:13.816Z,0.00
2018-12-09T11:02:13.826Z,4.00
2018-12-09T11:03:13.839Z,0.00
2018-12-09T11:04:13.848Z,0.00
2018-12-09T11:05:13.862Z,4.00
2018-12-09T11:06:13.871Z,0.00
2018-12-09T11:07:13.888Z,4.00
2018-12-09T11:08:13.898Z,0.00
2018-12-09T11:09:13.912Z,0.00
2018-12-09T11:10:13.922Z,0.00
2018-12-09T11:11:13.943Z,0.00
2018-12-09T11:12:13.948Z,0.00
2018-12-09T11:13:13.958Z,0.00
2018-12-09T11:14:13.968Z,0.00
2018-12-09T11:15:14.060Z,0.00
2018-12-09T11:16:13.994Z,0.00
2018-12-09T11:17:14.050Z,0.00
2018-12-09T11:18:14.018Z,0.00
2018-12-09T11:19:14.029Z,0.00
2018-12-09T11:20:14.042Z,0.00
2018-12-09T11:21:14.051Z,0.00
2018-12-09T11:22:14.067Z,0.00
2018-12-09T11:23:14.080Z,0.00
2018-12-09T11:24:14.088Z,0.00
2018-12-09T11:25:14.111Z,0.00
2018-12-09T11:26:14.115Z,0.00
2018-12-09T11:27:14.133Z,0.00
2018-12-09T11:28:14.137Z,0.00
2018-12-09T11:29:14.157Z,0.00
2018-12-09T11:30:14.162Z,0.00
2018-12-09T11:31:14.177Z,0.00
2018-12-09T11:32:14.186Z,0.00
2018-12-09T11:33:14.204Z,0.00
2018-12-09T11:34:14.223Z,0.00
2018-12-09T11:35:14.234Z,0.00
2018-12-09T11:36:14.234Z,0.00
2018-12-09T11:37:14.251Z,0.00
2018-12-09T11:38:14.261Z,0.00
2018-12-09T11:39:14.267Z,0.00
2018-12-09T11:40:14.279Z,0.00
2018-12-09T11:41:14.386Z,0.00
2018-12-09T11:42:14.304Z,0.00
2018-12-09T11:43:14.318Z,0.00
2018-12-09T11:44:14.327Z,0.00
2018-12-09T11:45:14.341Z,0.00
2018-12-09T11:46:14.361Z,0.00
2018-12-09T11:47:14.367Z,0.00
2018-12-09T11:48:14.377Z,0.00
2018-12-09T11:49:14.388Z,0.00
2018-12-09T11:50:14.408Z,0.00
2018-12-09T11:51:14.411Z,0.00
2018-12-09T11:52:14.429Z,0.00
2018-12-09T11:53:14.437Z,0.00
2018-12-09T11:54:14.457Z,0.00
2018-12-09T11:55:14.457Z,0.00
2018-12-09T11:56:14.477Z,0.00
2018-12-09T11:57:14.481Z,0.00
2018-12-09T11:58:14.498Z,0.00
2018-12-09T11:59:14.504Z,0.00
2018-12-09T12:00:14.518Z,0.00
2018-12-09T12:01:14.529Z,0.00
2018-12-09T12:02:20.002Z,0.00
2018-12-09T12:03:14.561Z,0.00
2018-12-09T12:04:14.564Z,0.00
2018-12-09T12:05:14.589Z,0.00
2018-12-09T12:06:14.597Z,0.00
2018-12-09T12:07:14.608Z,0.00
2018-12-09T12:08:14.620Z,0.00
2018-12-09T12:09:14.634Z,0.00
2018-12-09T12:10:14.637Z,0.00
2018-12-09T12:11:14.658Z,0.00
2018-12-09T12:12:14.662Z,0.00
2018-12-09T12:13:14.675Z,0.00
2018-12-09T12:14:14.682Z,0.00
2018-12-09T12:15:14.695Z,0.00
2018-12-09T12:16:14.710Z,0.00
2018-12-09T12:17:14.720Z,0.00
2018-12-09T12:18:14.738Z,0.00
2018-12-09T12:19:14.744Z,0.00
2018-12-09T12:20:14.767Z,0.00
2018-12-09T12:21:14.784Z,0.00
2018-12-09T12:22:14.782Z,0.00
2018-12-09T12:23:14.799Z,0.00
2018-12-09T12:24:14.799Z,0.00
2018-12-09T12:25:14.813Z,0.00
2018-12-09T12:26:14.827Z,0.00
2018-12-09T12:27:14.836Z,0.00
2018-12-09T12:28:14.853Z,0.00
2018-12-09T12:29:14.878Z,0.00
2018-12-09T12:30:14.878Z,0.00
2018-12-09T12:31:14.882Z,0.00
2018-12-09T12:32:14.897Z,0.00
2018-12-09T12:33:14.914Z,0.00
2018-12-09T12:34:14.919Z,0.00
2018-12-09T12:35:14.932Z,0.00
2018-12-09T12:36:14.947Z,0.00
2018-12-09T12:37:14.954Z,0.00
2018-12-09T12:38:14.967Z,0.00
2018-12-09T12:39:14.980Z,0.00
2018-12-09T12:40:14.997Z,0.00
2018-12-09T12:41:15.011Z,0.00
2018-12-09T12:42:15.026Z,0.00
2018-12-09T12:43:15.022Z,0.00
2018-12-09T12:44:15.039Z,0.00
2018-12-09T12:45:15.047Z,0.00
2018-12-09T12:46:15.068Z,0.00
2018-12-09T12:47:15.081Z,0.00
2018-12-09T12:48:15.088Z,0.00
2018-12-09T12:49:15.131Z,0.00
2018-12-09T12:50:15.106Z,0.00
2018-12-09T12:51:15.121Z,0.00
2018-12-09T12:52:15.132Z,0.00
2018-12-09T12:53:15.145Z,0.00
2018-12-09T12:54:15.162Z,0.00
2018-12-09T12:55:15.168Z,0.00
2018-12-09T12:56:15.180Z,0.00
2018-12-09T12:57:15.185Z,0.00
2018-12-09T12:58:15.199Z,0.00
2018-12-09T12:59:15.214Z,0.00
2018-12-09T13:00:15.235Z,0.00
2018-12-09T13:01:15.236Z,0.00
2018-12-09T13:02:15.246Z,0.00
2018-12-09T13:03:15.270Z,0.00
2018-12-09T13:04:15.272Z,0.00
2018-12-09T13:05:15.284Z,0.00
2018-12-09T13:06:15.294Z,0.00
2018-12-09T13:07:15.309Z,0.00
2018-12-09T13:08:15.319Z,0.00
2018-12-09T13:09:15.328Z,0.00
2018-12-09T13:10:15.354Z,0.00
2018-12-09T13:11:15.353Z,0.00
2018-12-09T13:12:15.365Z,0.00
2018-12-09T13:13:15.389Z,0.00
2018-12-09T13:14:15.388Z,0.00
2018-12-09T13:15:15.403Z,0.00
2018-12-09T13:16:15.417Z,0.00
2018-12-09T13:17:15.428Z,0.00
2018-12-09T13:18:15.432Z,0.00
2018-12-09T13:19:15.451Z,0.00
2018-12-09T13:20:15.468Z,0.00
2018-12-09T13:21:15.485Z,0.00
2018-12-09T13:22:15.489Z,0.00
2018-12-09T13:23:15.493Z,0.00
2018-12-09T13:24:15.509Z,0.00
2018-12-09T13:25:15.520Z,0.00
2018-12-09T13:26:15.537Z,0.00
2018-12-09T13:27:15.552Z,0.00
2018-12-09T13:28:15.553Z,0.00
2018-12-09T13:29:15.568Z,0.00
2018-12-09T13:30:15.575Z,0.00
2018-12-09T13:31:15.589Z,0.00
2018-12-09T13:32:15.601Z,0.00
2018-12-09T13:33:15.611Z,0.00
2018-12-09T13:34:15.624Z,0.00
2018-12-09T13:35:15.636Z,0.00
2018-12-09T13:36:15.651Z,0.00
2018-12-09T13:37:15.659Z,0.00
2018-12-09T13:38:15.672Z,0.00
2018-12-09T13:39:15.690Z,0.00
2018-12-09T13:40:15.694Z,0.00
2018-12-09T13:41:15.710Z,0.00
2018-12-09T13:42:15.718Z,0.00
2018-12-09T13:43:15.731Z,0.00
2018-12-09T13:44:15.743Z,0.00
2018-12-09T13:45:15.755Z,0.00
2018-12-09T13:46:15.765Z,0.00
2018-12-09T13:47:15.780Z,0.00
2018-12-09T13:48:15.787Z,0.00
2018-12-09T13:49:15.810Z,0.00
2018-12-09T13:50:15.814Z,0.00
2018-12-09T13:51:15.831Z,0.00
2018-12-09T13:52:15.834Z,0.00
2018-12-09T13:53:15.846Z,0.00
2018-12-09T13:54:15.865Z,0.00
2018-12-09T13:55:15.881Z,0.00
2018-12-09T13:56:15.880Z,0.00
2018-12-09T13:57:15.907Z,0.00
2018-12-09T13:58:15.908Z,0.00
2018-12-09T13:59:15.930Z,0.00
2018-12-09T14:00:15.941Z,0.00
2018-12-09T14:01:15.948Z,0.00
2018-12-09T14:02:15.956Z,0.00
2018-12-09T14:03:15.977Z,0.00
2018-12-09T14:04:15.983Z,0.00
2018-12-09T14:05:15.997Z,0.00
2018-12-09T14:06:16.002Z,0.00
2018-12-09T14:07:16.019Z,0.00
2018-12-09T14:08:16.041Z,0.00
2018-12-09T14:09:16.041Z,0.00
2018-12-09T14:10:16.051Z,0.00
2018-12-09T14:11:16.057Z,0.00
2018-12-09T14:12:16.076Z,0.00
2018-12-09T14:13:16.089Z,0.00
2018-12-09T14:14:16.096Z,0.00
2018-12-09T14:15:16.103Z,0.00
2018-12-09T14:16:16.113Z,0.00
2018-12-09T14:17:16.125Z,0.00
2018-12-09T14:18:16.149Z,0.00
2018-12-09T14:19:16.152Z,0.00
2018-12-09T14:20:16.163Z,0.00
2018-12-09T14:21:16.183Z,0.00
2018-12-09T14:22:16.183Z,0.00
2018-12-09T14:23:16.195Z,0.00
2018-12-09T14:24:16.214Z,0.00
2018-12-09T14:25:16.227Z,0.00
2018-12-09T14:26:16.240Z,0.00
2018-12-09T14:27:16.243Z,0.00
2018-12-09T14:28:16.252Z,0.00
2018-12-09T14:29:16.275Z,0.00
2018-12-09T14:30:16.281Z,0.00
2018-12-09T14:31:16.290Z,0.00
2018-12-09T14:32:16.303Z,0.00
2018-12-09T14:33:16.311Z,0.00
2018-12-09T14:34:16.335Z,0.00
2018-12-09T14:35:16.405Z,0.00
2018-12-09T14:36:16.351Z,0.00
2018-12-09T14:37:16.359Z,0.00
2018-12-09T14:38:16.380Z,0.00
2018-12-09T14:39:16.386Z,0.00
2018-12-09T14:40:16.395Z,0.00
2018-12-09T14:41:16.412Z,0.00
2018-12-09T14:42:16.421Z,0.00
2018-12-09T14:43:16.436Z,0.00
2018-12-09T14:44:16.476Z,0.00
2018-12-09T14:45:16.464Z,0.00
2018-12-09T14:46:16.468Z,0.00
2018-12-09T14:47:16.483Z,0.00
2018-12-09T14:48:16.488Z,0.00
2018-12-09T14:49:16.501Z,0.00
2018-12-09T14:50:16.510Z,0.00
2018-12-09T14:51:16.533Z,0.00
2018-12-09T14:52:16.535Z,0.00
2018-12-09T14:53:16.551Z,0.00
2018-12-09T14:54:16.556Z,0.00
2018-12-09T14:55:16.580Z,0.00
2018-12-09T14:56:16.583Z,0.00
2018-12-09T14:57:16.596Z,0.00
2018-12-09T14:58:16.605Z,0.00
2018-12-09T14:59:16.620Z,0.00
2018-12-09T15:00:16.632Z,0.00
2018-12-09T15:01:16.637Z,0.00